sensor_id;sensor_type;location;lat;lon;timestamp;pressure;altitude;pressure_sealevel;temperature;humidity
8543;BME280;4309;42.658;23.380;2023-02-11T00:00:17;96423.28;;;-2.13;64.79
8543;BME280;4309;42.658;23.380;2023-02-11T00:00:49;96420.59;;;-2.12;64.63
8543;BME280;4309;42.658;23.380;2023-02-11T00:01:26;96426.88;;;-2.03;64.29
8543;BME280;4309;42.658;23.380;2023-02-11T00:02:02;96422.06;;;-1.95;64.26
8543;BME280;4309;42.658;23.380;2023-02-11T00:02:34;96419.22;;;-1.91;63.98
8543;BME280;4309;42.658;23.380;2023-02-11T00:03:06;96428.72;;;-1.93;63.83
8543;BME280;4309;42.658;23.380;2023-02-11T00:03:40;96431.41;;;-1.94;63.54
8543;BME280;4309;42.658;23.380;2023-02-11T00:04:13;96429.75;;;-1.95;63.62
8543;BME280;4309;42.658;23.380;2023-02-11T00:04:49;96416.53;;;-2.02;64.10
8543;BME280;4309;42.658;23.380;2023-02-11T00:05:21;96418.25;;;-2.15;63.87
8543;BME280;4309;42.658;23.380;2023-02-11T00:06:01;96436.09;;;-2.13;64.06
8543;BME280;4309;42.658;23.380;2023-02-11T00:06:34;96428.09;;;-2.09;64.23
8543;BME280;4309;42.658;23.380;2023-02-11T00:07:06;96419.09;;;-2.14;63.80
8543;BME280;4309;42.658;23.380;2023-02-11T00:07:39;96442.88;;;-2.12;64.03
8543;BME280;4309;42.658;23.380;2023-02-11T00:08:12;96410.88;;;-2.19;63.73
8543;BME280;4309;42.658;23.380;2023-02-11T00:08:50;96423.81;;;-2.08;63.77
8543;BME280;4309;42.658;23.380;2023-02-11T00:09:24;96426.06;;;-2.04;64.04
8543;BME280;4309;42.658;23.380;2023-02-11T00:09:55;96425.22;;;-2.04;63.91
8543;BME280;4309;42.658;23.380;2023-02-11T00:10:26;96416.13;;;-1.96;63.91
8543;BME280;4309;42.658;23.380;2023-02-11T00:11:02;96423.72;;;-1.94;63.24
8543;BME280;4309;42.658;23.380;2023-02-11T00:11:34;96421.25;;;-1.96;63.16
8543;BME280;4309;42.658;23.380;2023-02-11T00:12:06;96416.22;;;-1.97;63.55
8543;BME280;4309;42.658;23.380;2023-02-11T00:12:41;96413.75;;;-2.11;63.42
8543;BME280;4309;42.658;23.380;2023-02-11T00:13:13;96417.22;;;-2.25;63.90
8543;BME280;4309;42.658;23.380;2023-02-11T00:13:45;96422.25;;;-2.23;63.97
8543;BME280;4309;42.658;23.380;2023-02-11T00:14:21;96415.78;;;-2.16;63.81
8543;BME280;4309;42.658;23.380;2023-02-11T00:14:53;96425.03;;;-2.14;64.09
8543;BME280;4309;42.658;23.380;2023-02-11T00:15:26;96421.53;;;-2.13;63.74
8543;BME280;4309;42.658;23.380;2023-02-11T00:15:57;96419.09;;;-2.14;63.69
8543;BME280;4309;42.658;23.380;2023-02-11T00:16:30;96417.25;;;-2.12;63.88
8543;BME280;4309;42.658;23.380;2023-02-11T00:17:03;96420.41;;;-2.09;63.75
8543;BME280;4309;42.658;23.380;2023-02-11T00:17:36;96430.34;;;-2.04;64.11
8543;BME280;4309;42.658;23.380;2023-02-11T00:18:08;96428.50;;;-2.15;64.32
8543;BME280;4309;42.658;23.380;2023-02-11T00:18:40;96430.22;;;-2.15;64.73
8543;BME280;4309;42.658;23.380;2023-02-11T00:19:15;96423.56;;;-2.18;64.06
8543;BME280;4309;42.658;23.380;2023-02-11T00:19:48;96426.44;;;-2.22;63.77
8543;BME280;4309;42.658;23.380;2023-02-11T00:20:20;96423.56;;;-2.18;64.10
8543;BME280;4309;42.658;23.380;2023-02-11T00:20:52;96426.78;;;-2.14;63.83
8543;BME280;4309;42.658;23.380;2023-02-11T00:21:25;96417.25;;;-2.12;64.57
8543;BME280;4309;42.658;23.380;2023-02-11T00:21:58;96419.59;;;-2.22;63.83
8543;BME280;4309;42.658;23.380;2023-02-11T00:22:33;96423.38;;;-2.15;63.83
8543;BME280;4309;42.658;23.380;2023-02-11T00:23:11;96429.22;;;-2.25;64.18
8543;BME280;4309;42.658;23.380;2023-02-11T00:23:44;96422.34;;;-2.25;64.18
8543;BME280;4309;42.658;23.380;2023-02-11T00:24:17;96422.94;;;-2.21;64.59
8543;BME280;4309;42.658;23.380;2023-02-11T00:24:49;96420.81;;;-2.15;64.11
8543;BME280;4309;42.658;23.380;2023-02-11T00:25:21;96430.22;;;-2.15;64.43
8543;BME280;4309;42.658;23.380;2023-02-11T00:25:53;96427.59;;;-2.14;64.18
8543;BME280;4309;42.658;23.380;2023-02-11T00:26:26;96426.88;;;-2.16;63.94
8543;BME280;4309;42.658;23.380;2023-02-11T00:26:59;96427.66;;;-2.15;64.16
8543;BME280;4309;42.658;23.380;2023-02-11T00:27:32;96426.88;;;-2.16;63.98
8543;BME280;4309;42.658;23.380;2023-02-11T00:28:04;96412.41;;;-2.17;64.36
8543;BME280;4309;42.658;23.380;2023-02-11T00:28:34;96421.25;;;-2.08;64.19
8543;BME280;4309;42.658;23.380;2023-02-11T00:29:06;96417.81;;;-2.21;63.88
8543;BME280;4309;42.658;23.380;2023-02-11T00:29:38;96423.28;;;-2.13;63.92
8543;BME280;4309;42.658;23.380;2023-02-11T00:30:11;96419.59;;;-2.09;64.23
8543;BME280;4309;42.658;23.380;2023-02-11T00:30:42;96414.47;;;-2.09;64.08
8543;BME280;4309;42.658;23.380;2023-02-11T00:31:16;96417.53;;;-2.04;63.86
8543;BME280;4309;42.658;23.380;2023-02-11T00:31:48;96417.94;;;-2.10;64.46
8543;BME280;4309;42.658;23.380;2023-02-11T00:32:20;96418.16;;;-2.13;64.29
8543;BME280;4309;42.658;23.380;2023-02-11T00:32:52;96413.97;;;-2.14;64.06
8543;BME280;4309;42.658;23.380;2023-02-11T00:33:25;96414.59;;;-2.11;64.08
8543;BME280;4309;42.658;23.380;2023-02-11T00:33:57;96416.41;;;-2.13;64.34
8543;BME280;4309;42.658;23.380;2023-02-11T00:34:35;96417.41;;;-2.15;64.13
8543;BME280;4309;42.658;23.380;2023-02-11T00:35:08;96416.63;;;-2.16;64.10
8543;BME280;4309;42.658;23.380;2023-02-11T00:35:40;96416.09;;;-2.21;64.28
8543;BME280;4309;42.658;23.380;2023-02-11T00:36:16;96415.28;;;-2.21;64.01
8543;BME280;4309;42.658;23.380;2023-02-11T00:36:47;96416.72;;;-2.17;63.93
8543;BME280;4309;42.658;23.380;2023-02-11T00:37:20;96417.72;;;-2.20;63.91
8543;BME280;4309;42.658;23.380;2023-02-11T00:37:53;96411.28;;;-2.25;63.89
8543;BME280;4309;42.658;23.380;2023-02-11T00:38:25;96412.28;;;-2.28;63.75
8543;BME280;4309;42.658;23.380;2023-02-11T00:38:58;96412.91;;;-2.24;63.96
8543;BME280;4309;42.658;23.380;2023-02-11T00:39:32;96412.22;;;-2.14;63.31
8543;BME280;4309;42.658;23.380;2023-02-11T00:40:06;96414.97;;;-2.17;63.01
8543;BME280;4309;42.658;23.380;2023-02-11T00:40:38;96410.56;;;-2.15;63.50
8543;BME280;4309;42.658;23.380;2023-02-11T00:41:12;96412.59;;;-2.20;63.09
8543;BME280;4309;42.658;23.380;2023-02-11T00:41:44;96421.66;;;-2.14;63.07
8543;BME280;4309;42.658;23.380;2023-02-11T00:42:16;96422.75;;;-2.18;63.40
8543;BME280;4309;42.658;23.380;2023-02-11T00:42:51;96418.13;;;-2.26;63.67
8543;BME280;4309;42.658;23.380;2023-02-11T00:43:24;96422.06;;;-2.20;63.13
8543;BME280;4309;42.658;23.380;2023-02-11T00:43:56;96421.94;;;-2.19;62.87
8543;BME280;4309;42.658;23.380;2023-02-11T00:44:30;96423.28;;;-2.13;63.55
8543;BME280;4309;42.658;23.380;2023-02-11T00:45:03;96428.47;;;-2.27;63.50
8543;BME280;4309;42.658;23.380;2023-02-11T00:45:36;96424.91;;;-2.25;63.15
8543;BME280;4309;42.658;23.380;2023-02-11T00:46:08;96423.69;;;-2.19;63.15
8543;BME280;4309;42.658;23.380;2023-02-11T00:46:40;96421.31;;;-2.22;63.73
8543;BME280;4309;42.658;23.380;2023-02-11T00:47:13;96417.81;;;-2.21;63.66
8543;BME280;4309;42.658;23.380;2023-02-11T00:47:45;96417.03;;;-2.22;63.33
8543;BME280;4309;42.658;23.380;2023-02-11T00:48:18;96416.53;;;-2.14;63.55
8543;BME280;4309;42.658;23.380;2023-02-11T00:48:51;96411.91;;;-2.22;63.19
8543;BME280;4309;42.658;23.380;2023-02-11T00:49:25;96406.88;;;-2.23;63.16
8543;BME280;4309;42.658;23.380;2023-02-11T00:49:58;96413.31;;;-2.30;63.64
8543;BME280;4309;42.658;23.380;2023-02-11T00:50:32;96422.53;;;-2.28;63.43
8543;BME280;4309;42.658;23.380;2023-02-11T00:51:04;96409.44;;;-2.36;63.39
8543;BME280;4309;42.658;23.380;2023-02-11T00:51:37;96407.22;;;-2.42;63.51
8543;BME280;4309;42.658;23.380;2023-02-11T00:52:10;96408.78;;;-2.39;63.59
8543;BME280;4309;42.658;23.380;2023-02-11T00:52:42;96416.50;;;-2.27;63.51
8543;BME280;4309;42.658;23.380;2023-02-11T00:53:14;96406.34;;;-2.28;64.02
8543;BME280;4309;42.658;23.380;2023-02-11T00:53:47;96401.88;;;-2.25;63.96
8543;BME280;4309;42.658;23.380;2023-02-11T00:54:19;96412.81;;;-2.23;63.69
8543;BME280;4309;42.658;23.380;2023-02-11T00:54:51;96416.59;;;-2.28;63.80
8543;BME280;4309;42.658;23.380;2023-02-11T00:55:24;96414.16;;;-2.30;63.69
8543;BME280;4309;42.658;23.380;2023-02-11T00:55:56;96412.59;;;-2.20;63.31
8543;BME280;4309;42.658;23.380;2023-02-11T00:56:28;96410.75;;;-2.30;63.12
8543;BME280;4309;42.658;23.380;2023-02-11T00:57:00;96410.13;;;-2.34;63.73
8543;BME280;4309;42.658;23.380;2023-02-11T00:57:33;96405.72;;;-2.32;63.32
8543;BME280;4309;42.658;23.380;2023-02-11T00:58:05;96408.00;;;-2.27;63.17
8543;BME280;4309;42.658;23.380;2023-02-11T00:58:37;96413.31;;;-2.30;63.25
8543;BME280;4309;42.658;23.380;2023-02-11T00:59:09;96405.84;;;-2.33;63.08
8543;BME280;4309;42.658;23.380;2023-02-11T00:59:42;96407.16;;;-2.28;63.48
8543;BME280;4309;42.658;23.380;2023-02-11T01:00:15;96410.44;;;-2.26;63.03
8543;BME280;4309;42.658;23.380;2023-02-11T01:00:47;96404.59;;;-2.28;62.91
8543;BME280;4309;42.658;23.380;2023-02-11T01:01:20;96401.63;;;-2.34;63.19
8543;BME280;4309;42.658;23.380;2023-02-11T01:01:52;96401.53;;;-2.33;62.99
8543;BME280;4309;42.658;23.380;2023-02-11T01:02:24;96404.69;;;-2.29;63.08
8543;BME280;4309;42.658;23.380;2023-02-11T01:02:56;96405.72;;;-2.32;63.41
8543;BME280;4309;42.658;23.380;2023-02-11T01:03:29;96405.72;;;-2.32;63.17
8543;BME280;4309;42.658;23.380;2023-02-11T01:04:00;96409.72;;;-2.28;63.18
8543;BME280;4309;42.658;23.380;2023-02-11T01:04:32;96402.25;;;-2.31;63.03
8543;BME280;4309;42.658;23.380;2023-02-11T01:05:07;96408.69;;;-2.38;63.25
8543;BME280;4309;42.658;23.380;2023-02-11T01:05:39;96408.28;;;-2.32;63.28
8543;BME280;4309;42.658;23.380;2023-02-11T01:06:11;96410.03;;;-2.32;62.93
8543;BME280;4309;42.658;23.380;2023-02-11T01:06:43;96412.91;;;-2.24;63.21
8543;BME280;4309;42.658;23.380;2023-02-11T01:07:15;96410.25;;;-2.23;63.36
8543;BME280;4309;42.658;23.380;2023-02-11T01:07:47;96409.03;;;-2.30;63.21
8543;BME280;4309;42.658;23.380;2023-02-11T01:08:20;96403.06;;;-2.30;62.98
8543;BME280;4309;42.658;23.380;2023-02-11T01:08:52;96408.19;;;-2.30;63.17
8543;BME280;4309;42.658;23.380;2023-02-11T01:09:24;96409.31;;;-2.34;63.10
8543;BME280;4309;42.658;23.380;2023-02-11T01:09:57;96402.34;;;-2.32;63.42
8543;BME280;4309;42.658;23.380;2023-02-11T01:10:30;96407.22;;;-2.42;63.37
8543;BME280;4309;42.658;23.380;2023-02-11T01:11:02;96399.28;;;-2.37;63.04
8543;BME280;4309;42.658;23.380;2023-02-11T01:11:36;96401.75;;;-2.36;62.88
8543;BME280;4309;42.658;23.380;2023-02-11T01:12:08;96401.44;;;-2.31;63.44
8543;BME280;4309;42.658;23.380;2023-02-11T01:12:40;96407.06;;;-2.39;63.21
8543;BME280;4309;42.658;23.380;2023-02-11T01:13:13;96403.38;;;-2.35;63.38
8543;BME280;4309;42.658;23.380;2023-02-11T01:13:46;96403.88;;;-2.42;62.83
8543;BME280;4309;42.658;23.380;2023-02-11T01:14:18;96405.41;;;-2.40;63.15
8543;BME280;4309;42.658;23.380;2023-02-11T01:14:51;96400.19;;;-2.38;63.15
8543;BME280;4309;42.658;23.380;2023-02-11T01:15:23;96399.19;;;-2.36;63.15
8543;BME280;4309;42.658;23.380;2023-02-11T01:15:55;96395.88;;;-2.50;63.16
8543;BME280;4309;42.658;23.380;2023-02-11T01:16:28;96390.34;;;-2.44;62.85
8543;BME280;4309;42.658;23.380;2023-02-11T01:16:59;96404.50;;;-2.39;62.72
8543;BME280;4309;42.658;23.380;2023-02-11T01:17:32;96398.56;;;-2.39;63.11
8543;BME280;4309;42.658;23.380;2023-02-11T01:18:05;96396.19;;;-2.42;62.70
8543;BME280;4309;42.658;23.380;2023-02-11T01:18:37;96401.41;;;-2.44;63.23
8543;BME280;4309;42.658;23.380;2023-02-11T01:19:09;96394.19;;;-2.51;62.73
8543;BME280;4309;42.658;23.380;2023-02-11T01:19:42;96403.16;;;-2.44;63.24
8543;BME280;4309;42.658;23.380;2023-02-11T01:20:22;96402.00;;;-2.40;62.77
8543;BME280;4309;42.658;23.380;2023-02-11T01:20:55;96402.63;;;-2.37;62.61
8543;BME280;4309;42.658;23.380;2023-02-11T01:21:27;96402.63;;;-2.37;62.68
8543;BME280;4309;42.658;23.380;2023-02-11T01:21:59;96397.63;;;-2.38;62.74
8543;BME280;4309;42.658;23.380;2023-02-11T01:22:32;96381.72;;;-2.56;62.98
8543;BME280;4309;42.658;23.380;2023-02-11T01:23:07;96394.63;;;-2.45;62.96
8543;BME280;4309;42.658;23.380;2023-02-11T01:23:39;96389.91;;;-2.51;63.18
8543;BME280;4309;42.658;23.380;2023-02-11T01:24:11;96395.38;;;-2.43;63.36
8543;BME280;4309;42.658;23.380;2023-02-11T01:24:44;96397.72;;;-2.40;63.39
8543;BME280;4309;42.658;23.380;2023-02-11T01:25:17;96397.53;;;-2.37;63.28
8543;BME280;4309;42.658;23.380;2023-02-11T01:25:49;96394.16;;;-2.37;62.55
8543;BME280;4309;42.658;23.380;2023-02-11T01:26:23;96393.22;;;-2.36;62.89
8543;BME280;4309;42.658;23.380;2023-02-11T01:26:54;96392.00;;;-2.31;62.55
8543;BME280;4309;42.658;23.380;2023-02-11T01:27:26;96396.31;;;-2.31;62.92
8543;BME280;4309;42.658;23.380;2023-02-11T01:27:59;96395.28;;;-2.29;63.08
8543;BME280;4309;42.658;23.380;2023-02-11T01:28:35;96387.59;;;-2.29;62.95
8543;BME280;4309;42.658;23.380;2023-02-11T01:29:07;96393.75;;;-2.31;62.93
8543;BME280;4309;42.658;23.380;2023-02-11T01:29:41;96391.06;;;-2.42;63.27
8543;BME280;4309;42.658;23.380;2023-02-11T01:30:13;96393.19;;;-2.49;63.04
8543;BME280;4309;42.658;23.380;2023-02-11T01:30:45;96399.84;;;-2.46;62.93
8543;BME280;4309;42.658;23.380;2023-02-11T01:31:18;96390.66;;;-2.49;63.27
8543;BME280;4309;42.658;23.380;2023-02-11T01:31:50;96389.00;;;-2.50;62.79
8543;BME280;4309;42.658;23.380;2023-02-11T01:32:23;96402.09;;;-2.54;63.07
8543;BME280;4309;42.658;23.380;2023-02-11T01:32:56;96395.97;;;-2.52;62.96
8543;BME280;4309;42.658;23.380;2023-02-11T01:33:28;96398.75;;;-2.42;63.12
8543;BME280;4309;42.658;23.380;2023-02-11T01:34:00;96393.53;;;-2.41;62.80
8543;BME280;4309;42.658;23.380;2023-02-11T01:34:33;96398.97;;;-2.33;62.63
8543;BME280;4309;42.658;23.380;2023-02-11T01:35:06;96387.28;;;-2.37;62.95
8543;BME280;4309;42.658;23.380;2023-02-11T01:35:39;96390.38;;;-2.32;62.63
8543;BME280;4309;42.658;23.380;2023-02-11T01:36:12;96378.66;;;-2.48;62.93
8543;BME280;4309;42.658;23.380;2023-02-11T01:36:44;96396.00;;;-2.39;62.88
8543;BME280;4309;42.658;23.380;2023-02-11T01:37:16;96390.97;;;-2.41;62.75
8543;BME280;4309;42.658;23.380;2023-02-11T01:37:49;96387.78;;;-2.44;62.65
8543;BME280;4309;42.658;23.380;2023-02-11T01:38:24;96386.94;;;-2.45;63.07
8543;BME280;4309;42.658;23.380;2023-02-11T01:38:56;96386.53;;;-2.51;63.22
8543;BME280;4309;42.658;23.380;2023-02-11T01:39:32;96388.50;;;-2.42;63.08
8543;BME280;4309;42.658;23.380;2023-02-11T01:40:07;96378.03;;;-2.52;62.98
8543;BME280;4309;42.658;23.380;2023-02-11T01:40:39;96393.44;;;-2.39;63.38
8543;BME280;4309;42.658;23.380;2023-02-11T01:41:12;96385.53;;;-2.49;62.69
8543;BME280;4309;42.658;23.380;2023-02-11T01:41:45;96379.56;;;-2.49;62.91
8543;BME280;4309;42.658;23.380;2023-02-11T01:42:20;96393.50;;;-2.53;62.79
8543;BME280;4309;42.658;23.380;2023-02-11T01:42:53;96387.72;;;-2.69;63.10
8543;BME280;4309;42.658;23.380;2023-02-11T01:43:26;96394.78;;;-2.73;63.37
8543;BME280;4309;42.658;23.380;2023-02-11T01:44:20;96392.75;;;-2.68;63.34
8543;BME280;4309;42.658;23.380;2023-02-11T01:44:54;96390.47;;;-2.72;62.85
8543;BME280;4309;42.658;23.380;2023-02-11T01:45:57;96395.56;;;-2.85;63.71
8543;BME280;4309;42.658;23.380;2023-02-11T01:46:33;96388.31;;;-2.78;64.06
8543;BME280;4309;42.658;23.380;2023-02-11T01:47:05;96383.50;;;-2.83;63.73
8543;BME280;4309;42.658;23.380;2023-02-11T01:47:36;96395.06;;;-2.77;63.98
8543;BME280;4309;42.658;23.380;2023-02-11T01:48:11;96388.88;;;-2.87;63.95
8543;BME280;4309;42.658;23.380;2023-02-11T01:48:46;96388.47;;;-2.94;64.23
8543;BME280;4309;42.658;23.380;2023-02-11T01:49:22;96392.38;;;-2.88;64.38
8543;BME280;4309;42.658;23.380;2023-02-11T01:49:58;96388.19;;;-2.89;64.26
8543;BME280;4309;42.658;23.380;2023-02-11T01:50:33;96393.19;;;-2.88;64.44
8543;BME280;4309;42.658;23.380;2023-02-11T01:51:09;96393.81;;;-2.84;64.30
8543;BME280;4309;42.658;23.380;2023-02-11T01:51:46;96397.09;;;-2.82;64.50
8543;BME280;4309;42.658;23.380;2023-02-11T01:52:24;96386.25;;;-2.86;64.51
8543;BME280;4309;42.658;23.380;2023-02-11T01:52:58;96393.19;;;-2.88;64.18
8543;BME280;4309;42.658;23.380;2023-02-11T01:53:51;96392.81;;;-2.82;64.35
8543;BME280;4309;42.658;23.380;2023-02-11T01:54:45;96393.44;;;-2.78;63.48
8543;BME280;4309;42.658;23.380;2023-02-11T01:55:37;96392.16;;;-2.85;63.96
8543;BME280;4309;42.658;23.380;2023-02-11T01:56:27;96396.38;;;-2.84;64.13
8543;BME280;4309;42.658;23.380;2023-02-11T01:57:21;96388.72;;;-2.84;63.97
8543;BME280;4309;42.658;23.380;2023-02-11T01:57:59;96392.06;;;-2.84;64.03
8543;BME280;4309;42.658;23.380;2023-02-11T01:58:34;96398.50;;;-2.91;64.43
8543;BME280;4309;42.658;23.380;2023-02-11T01:59:14;96391.44;;;-2.87;64.67
8543;BME280;4309;42.658;23.380;2023-02-11T02:00:05;96386.31;;;-2.87;64.74
8543;BME280;4309;42.658;23.380;2023-02-11T02:00:39;96387.50;;;-2.79;64.34
8543;BME280;4309;42.658;23.380;2023-02-11T02:01:15;96384.06;;;-2.92;64.14
8543;BME280;4309;42.658;23.380;2023-02-11T02:01:52;96386.75;;;-3.07;64.45
8543;BME280;4309;42.658;23.380;2023-02-11T02:02:35;96388.56;;;-2.95;64.71
8543;BME280;4309;42.658;23.380;2023-02-11T02:03:14;96393.25;;;-3.02;64.02
8543;BME280;4309;42.658;23.380;2023-02-11T02:03:52;96388.31;;;-3.05;64.81
8543;BME280;4309;42.658;23.380;2023-02-11T02:04:28;96390.88;;;-3.05;64.75
8543;BME280;4309;42.658;23.380;2023-02-11T02:05:09;96391.44;;;-3.14;64.52
8543;BME280;4309;42.658;23.380;2023-02-11T02:05:49;96393.28;;;-3.16;64.90
8543;BME280;4309;42.658;23.380;2023-02-11T02:06:30;96387.09;;;-3.26;65.12
8543;BME280;4309;42.658;23.380;2023-02-11T02:07:07;96385.81;;;-3.19;65.19
8543;BME280;4309;42.658;23.380;2023-02-11T02:07:45;96385.81;;;-3.19;64.87
8543;BME280;4309;42.658;23.380;2023-02-11T02:08:24;96377.50;;;-3.23;64.80
8543;BME280;4309;42.658;23.380;2023-02-11T02:09:03;96375.28;;;-3.14;64.99
8543;BME280;4309;42.658;23.380;2023-02-11T02:09:40;96388.69;;;-3.11;64.48
8543;BME280;4309;42.658;23.380;2023-02-11T02:10:17;96388.25;;;-3.17;64.42
8543;BME280;4309;42.658;23.380;2023-02-11T02:10:52;96389.53;;;-3.25;64.64
8543;BME280;4309;42.658;23.380;2023-02-11T02:11:27;96386.00;;;-3.22;65.14
8543;BME280;4309;42.658;23.380;2023-02-11T02:12:01;96385.06;;;-3.21;65.05
8543;BME280;4309;42.658;23.380;2023-02-11T02:12:33;96387.28;;;-3.29;65.25
8543;BME280;4309;42.658;23.380;2023-02-11T02:13:05;96385.44;;;-3.27;65.36
8543;BME280;4309;42.658;23.380;2023-02-11T02:13:38;96383.69;;;-3.27;65.51
8543;BME280;4309;42.658;23.380;2023-02-11T02:14:10;96384.72;;;-3.29;65.12
8543;BME280;4309;42.658;23.380;2023-02-11T02:14:42;96374.69;;;-3.32;65.39
8543;BME280;4309;42.658;23.380;2023-02-11T02:15:23;96380.88;;;-3.36;65.19
8543;BME280;4309;42.658;23.380;2023-02-11T02:16:01;96391.38;;;-3.27;65.82
8543;BME280;4309;42.658;23.380;2023-02-11T02:16:35;96385.25;;;-3.24;65.23
8543;BME280;4309;42.658;23.380;2023-02-11T02:17:16;96388.16;;;-3.16;65.01
8543;BME280;4309;42.658;23.380;2023-02-11T02:18:06;96388.25;;;-3.17;65.51
8543;BME280;4309;42.658;23.380;2023-02-11T02:18:47;96383.16;;;-3.17;65.01
8543;BME280;4309;42.658;23.380;2023-02-11T02:21:07;96390.09;;;-3.20;65.23
8543;BME280;4309;42.658;23.380;2023-02-11T02:23:23;96388.09;;;-3.29;65.08
8543;BME280;4309;42.658;23.380;2023-02-11T02:24:34;96380.56;;;-3.44;65.21
8543;BME280;4309;42.658;23.380;2023-02-11T02:25:19;96390.16;;;-3.48;66.00
8543;BME280;4309;42.658;23.380;2023-02-11T02:26:34;96384.94;;;-3.46;66.08
8543;BME280;4309;42.658;23.380;2023-02-11T02:27:33;96381.47;;;-3.45;65.69
8543;BME280;4309;42.658;23.380;2023-02-11T02:28:24;96386.38;;;-3.42;65.85
8543;BME280;4309;42.658;23.380;2023-02-11T02:31:50;96390.53;;;-3.54;65.60
8543;BME280;4309;42.658;23.380;2023-02-11T02:32:50;96386.31;;;-3.69;66.36
8543;BME280;4309;42.658;23.380;2023-02-11T02:33:36;96385.06;;;-3.62;66.55
8543;BME280;4309;42.658;23.380;2023-02-11T02:34:19;96386.22;;;-3.67;66.82
8543;BME280;4309;42.658;23.380;2023-02-11T02:35:01;96381.22;;;-3.69;66.31
8543;BME280;4309;42.658;23.380;2023-02-11T02:35:39;96388.06;;;-3.69;66.82
8543;BME280;4309;42.658;23.380;2023-02-11T02:36:18;96389.06;;;-3.72;66.61
8543;BME280;4309;42.658;23.380;2023-02-11T02:36:58;96380.38;;;-3.83;66.90
8543;BME280;4309;42.658;23.380;2023-02-11T02:37:36;96385.34;;;-3.80;67.03
8543;BME280;4309;42.658;23.380;2023-02-11T02:38:17;96378.75;;;-3.84;66.84
8543;BME280;4309;42.658;23.380;2023-02-11T02:38:54;96380.75;;;-3.89;67.29
8543;BME280;4309;42.658;23.380;2023-02-11T02:39:32;96379.22;;;-3.92;67.49
8543;BME280;4309;42.658;23.380;2023-02-11T02:40:09;96387.63;;;-3.90;67.58
8543;BME280;4309;42.658;23.380;2023-02-11T02:40:45;96390.19;;;-3.90;67.17
8543;BME280;4309;42.658;23.380;2023-02-11T02:41:22;96386.06;;;-3.92;67.56
8543;BME280;4309;42.658;23.380;2023-02-11T02:41:55;96389.63;;;-3.95;67.44
8543;BME280;4309;42.658;23.380;2023-02-11T02:42:27;96387.81;;;-3.93;67.68
8543;BME280;4309;42.658;23.380;2023-02-11T02:43:02;96386.22;;;-3.95;67.88
8543;BME280;4309;42.658;23.380;2023-02-11T02:43:41;96384.50;;;-3.95;67.28
8543;BME280;4309;42.658;23.380;2023-02-11T02:44:17;96391.06;;;-3.91;67.29
8543;BME280;4309;42.658;23.380;2023-02-11T02:44:49;96386.06;;;-3.92;66.99
8543;BME280;4309;42.658;23.380;2023-02-11T02:45:21;96382.59;;;-4.05;66.53
8543;BME280;4309;42.658;23.380;2023-02-11T02:45:54;96382.03;;;-3.96;67.09
8543;BME280;4309;42.658;23.380;2023-02-11T02:46:27;96383.88;;;-3.98;66.45
8543;BME280;4309;42.658;23.380;2023-02-11T02:46:59;96386.59;;;-4.01;66.67
8543;BME280;4309;42.658;23.380;2023-02-11T02:47:32;96387.53;;;-4.02;66.13
8543;BME280;4309;42.658;23.380;2023-02-11T02:48:06;96385.22;;;-4.07;67.16
8543;BME280;4309;42.658;23.380;2023-02-11T02:48:36;96380.38;;;-4.11;67.23
8543;BME280;4309;42.658;23.380;2023-02-11T02:49:13;96387.63;;;-4.04;66.58
8543;BME280;4309;42.658;23.380;2023-02-11T02:49:46;96386.78;;;-4.04;67.10
8543;BME280;4309;42.658;23.380;2023-02-11T02:50:22;96386.97;;;-4.07;66.87
8543;BME280;4309;42.658;23.380;2023-02-11T02:51:10;96387.31;;;-4.13;66.61
8543;BME280;4309;42.658;23.380;2023-02-11T02:52:11;96387.72;;;-4.05;67.20
8543;BME280;4309;42.658;23.380;2023-02-11T02:52:53;96394.25;;;-4.01;67.18
8543;BME280;4309;42.658;23.380;2023-02-11T02:53:38;96384.31;;;-4.06;66.33
8543;BME280;4309;42.658;23.380;2023-02-11T02:54:34;96384.41;;;-4.07;66.84
8543;BME280;4309;42.658;23.380;2023-02-11T02:55:33;96392.72;;;-4.18;66.61
8543;BME280;4309;42.658;23.380;2023-02-11T02:56:13;96388.03;;;-4.25;66.63
8543;BME280;4309;42.658;23.380;2023-02-11T02:56:53;96388.28;;;-4.30;66.70
8543;BME280;4309;42.658;23.380;2023-02-11T02:57:33;96393.56;;;-4.33;66.73
8543;BME280;4309;42.658;23.380;2023-02-11T02:59:37;96388.09;;;-4.41;66.84
8543;BME280;4309;42.658;23.380;2023-02-11T03:00:21;96390.38;;;-4.36;67.36
8543;BME280;4309;42.658;23.380;2023-02-11T03:00:59;96387.91;;;-4.38;67.00
8543;BME280;4309;42.658;23.380;2023-02-11T03:01:42;96388.53;;;-4.48;66.96
8543;BME280;4309;42.658;23.380;2023-02-11T03:02:24;96390.03;;;-4.60;67.15
8543;BME280;4309;42.658;23.380;2023-02-11T03:03:08;96397.91;;;-4.49;67.33
8543;BME280;4309;42.658;23.380;2023-02-11T03:03:48;96399.66;;;-4.49;67.41
8543;BME280;4309;42.658;23.380;2023-02-11T03:04:29;96396.75;;;-4.43;67.66
8543;BME280;4309;42.658;23.380;2023-02-11T03:05:10;96404.50;;;-4.45;66.97
8543;BME280;4309;42.658;23.380;2023-02-11T03:05:50;96395.63;;;-4.53;67.34
8543;BME280;4309;42.658;23.380;2023-02-11T03:06:29;96394.78;;;-4.54;67.68
8543;BME280;4309;42.658;23.380;2023-02-11T03:07:10;96396.47;;;-4.53;67.27
8543;BME280;4309;42.658;23.380;2023-02-11T03:07:50;96399.44;;;-4.60;67.45
8543;BME280;4309;42.658;23.380;2023-02-11T03:08:29;96395.81;;;-4.56;67.06
8543;BME280;4309;42.658;23.380;2023-02-11T03:09:06;96391.63;;;-4.57;67.39
8543;BME280;4309;42.658;23.380;2023-02-11T03:09:45;96391.31;;;-4.67;67.07
8543;BME280;4309;42.658;23.380;2023-02-11T03:10:24;96389.56;;;-4.66;67.09
8543;BME280;4309;42.658;23.380;2023-02-11T03:10:59;96397.31;;;-4.68;67.28
8543;BME280;4309;42.658;23.380;2023-02-11T03:11:33;96399.75;;;-4.66;67.22
8543;BME280;4309;42.658;23.380;2023-02-11T03:12:08;96391.41;;;-4.68;67.55
8543;BME280;4309;42.658;23.380;2023-02-11T03:12:43;96389.56;;;-4.66;68.05
8543;BME280;4309;42.658;23.380;2023-02-11T03:13:20;96392.84;;;-4.64;67.92
8543;BME280;4309;42.658;23.380;2023-02-11T03:13:54;96394.94;;;-4.71;67.63
8543;BME280;4309;42.658;23.380;2023-02-11T03:14:27;96393.56;;;-4.77;68.17
8543;BME280;4309;42.658;23.380;2023-02-11T03:15:04;96395.63;;;-4.83;68.13
8543;BME280;4309;42.658;23.380;2023-02-11T03:15:40;96388.53;;;-4.78;67.99
8543;BME280;4309;42.658;23.380;2023-02-11T03:16:16;96400.63;;;-4.82;68.24
8543;BME280;4309;42.658;23.380;2023-02-11T03:16:53;96397.50;;;-4.87;67.87
8543;BME280;4309;42.658;23.380;2023-02-11T03:17:29;96391.34;;;-4.83;68.31
8543;BME280;4309;42.658;23.380;2023-02-11T03:18:05;96399.56;;;-4.78;68.26
8543;BME280;4309;42.658;23.380;2023-02-11T03:18:46;96394.47;;;-4.78;67.98
8543;BME280;4309;42.658;23.380;2023-02-11T03:19:22;96391.00;;;-4.77;67.72